Terminal Aerodrome Forecast
Issued by NWS Hastings, NE

Home | Current Version | Previous Version | Text Only | Print | Product List | Glossary On
Versions: 1 2 3 4 5 6 7 8 9 10 11 12 13 14 15 16
000
FTUS43 KGID 162325
TAFGRI
TAF
KGRI 162325Z 1700/1724 35019G26KT P6SM BKN025
     FM170400 35014KT P6SM OVC015
     FM171200 01009KT P6SM BKN025
     FM171900 VRB06KT P6SM BKN070=

USA.gov is the U.S. government's official web portal to all federal, state and local government web resources and services.